Terminal Aerodrome Forecast
Issued by NWS

Home | Current Version | Previous Version | Text Only | Print | Product List | Glossary On
Versions: 1 2 3 4 5 6 7 8 9 10 11 12 13 14
000
FTUS46 KMTR 180728 AAA
TAFSNS
TAF AMD
KSNS 180728Z 1807/1906 14004KT 1SM BR OVC002
     FM181730 10007KT P6SM FEW008 BKN200
     FM182000 28010KT P6SM SCT180
     FM190300 29006KT P6SM SCT180=

USA.gov is the U.S. government's official web portal to all federal, state and local government web resources and services.